sensor_id;sensor_type;location;lat;lon;timestamp;pressure;altitude;pressure_sealevel;temperature;humidity
64698;BME280;51124;53.394;-6.294;2023-02-24T00:02:07;101458.68;;;17.69;9.26
64698;BME280;51124;53.394;-6.294;2023-02-24T00:04:36;101454.47;;;18.86;9.19
64698;BME280;51124;53.394;-6.294;2023-02-24T00:07:06;101450.07;;;17.71;9.36
64698;BME280;51124;53.394;-6.294;2023-02-24T00:09:34;101444.10;;;18.63;9.39
64698;BME280;51124;53.394;-6.294;2023-02-24T00:12:05;101445.06;;;17.69;9.33
64698;BME280;51124;53.394;-6.294;2023-02-24T00:14:35;101448.57;;;17.85;9.22
64698;BME280;51124;53.394;-6.294;2023-02-24T00:17:04;101448.64;;;17.91;9.19
64698;BME280;51124;53.394;-6.294;2023-02-24T00:19:32;101448.58;;;17.72;9.18
64698;BME280;51124;53.394;-6.294;2023-02-24T00:22:05;101456.32;;;18.47;8.97
64698;BME280;51124;53.394;-6.294;2023-02-24T00:24:33;101454.11;;;17.53;9.43
64698;BME280;51124;53.394;-6.294;2023-02-24T00:27:03;101449.96;;;17.12;9.37
64698;BME280;51124;53.394;-6.294;2023-02-24T00:29:31;101448.91;;;18.13;9.12
64698;BME280;51124;53.394;-6.294;2023-02-24T00:31:59;101441.61;;;17.21;9.30
64698;BME280;51124;53.394;-6.294;2023-02-24T00:34:27;101438.29;;;17.64;9.22
64698;BME280;51124;53.394;-6.294;2023-02-24T00:36:55;101435.19;;;17.23;9.29
64698;BME280;51124;53.394;-6.294;2023-02-24T00:39:25;101438.64;;;18.70;9.07
64698;BME280;51124;53.394;-6.294;2023-02-24T00:41:53;101441.67;;;18.09;9.38
64698;BME280;51124;53.394;-6.294;2023-02-24T00:44:21;101436.17;;;17.26;9.30
64698;BME280;51124;53.394;-6.294;2023-02-24T00:46:49;101434.79;;;18.03;9.18
64698;BME280;51124;53.394;-6.294;2023-02-24T00:49:18;101429.71;;;18.20;9.36
64698;BME280;51124;53.394;-6.294;2023-02-24T00:51:48;101430.10;;;16.96;9.38
64698;BME280;51124;53.394;-6.294;2023-02-24T00:54:16;101428.79;;;17.59;9.30
64698;BME280;51124;53.394;-6.294;2023-02-24T00:56:48;101426.15;;;18.32;9.28
64698;BME280;51124;53.394;-6.294;2023-02-24T00:59:18;101418.28;;;17.13;9.36
64698;BME280;51124;53.394;-6.294;2023-02-24T01:01:46;101412.96;;;18.27;9.36
64698;BME280;51124;53.394;-6.294;2023-02-24T01:04:15;101406.66;;;17.59;9.44
64698;BME280;51124;53.394;-6.294;2023-02-24T01:06:45;101405.61;;;17.30;9.48
64698;BME280;51124;53.394;-6.294;2023-02-24T01:09:15;101410.36;;;18.09;9.16
64698;BME280;51124;53.394;-6.294;2023-02-24T01:11:45;101406.87;;;18.03;9.19
64698;BME280;51124;53.394;-6.294;2023-02-24T01:14:14;101405.03;;;18.41;9.00
64698;BME280;51124;53.394;-6.294;2023-02-24T01:16:42;101405.43;;;17.91;9.01
64698;BME280;51124;53.394;-6.294;2023-02-24T01:19:10;101400.19;;;17.40;9.26
64698;BME280;51124;53.394;-6.294;2023-02-24T01:21:38;101399.16;;;20.09;9.57
64698;BME280;51124;53.394;-6.294;2023-02-24T01:24:10;101393.13;;;19.98;10.17
64698;BME280;51124;53.394;-6.294;2023-02-24T01:26:39;101385.58;;;18.53;10.46
64698;BME280;51124;53.394;-6.294;2023-02-24T01:29:07;101386.32;;;17.74;10.60
64698;BME280;51124;53.394;-6.294;2023-02-24T01:31:35;101380.47;;;18.64;10.34
64698;BME280;51124;53.394;-6.294;2023-02-24T01:34:02;101379.21;;;19.57;10.20
64698;BME280;51124;53.394;-6.294;2023-02-24T01:36:31;101380.41;;;20.44;10.65
64698;BME280;51124;53.394;-6.294;2023-02-24T01:39:00;101378.07;;;19.84;10.85
64698;BME280;51124;53.394;-6.294;2023-02-24T01:41:31;101386.72;;;19.74;11.06
64698;BME280;51124;53.394;-6.294;2023-02-24T01:44:02;101379.19;;;19.06;11.16
64698;BME280;51124;53.394;-6.294;2023-02-24T01:46:31;101375.91;;;19.62;11.30
64698;BME280;51124;53.394;-6.294;2023-02-24T01:49:02;101367.69;;;20.01;11.10
64698;BME280;51124;53.394;-6.294;2023-02-24T01:51:35;101365.41;;;19.26;11.34
64698;BME280;51124;53.394;-6.294;2023-02-24T01:54:05;101365.95;;;19.67;11.42
64698;BME280;51124;53.394;-6.294;2023-02-24T01:56:37;101360.62;;;19.73;11.28
64698;BME280;51124;53.394;-6.294;2023-02-24T01:59:06;101374.46;;;19.07;11.56
64698;BME280;51124;53.394;-6.294;2023-02-24T02:01:36;101365.59;;;19.55;11.33
64698;BME280;51124;53.394;-6.294;2023-02-24T02:04:08;101366.15;;;19.64;11.46
64698;BME280;51124;53.394;-6.294;2023-02-24T02:06:38;101361.61;;;19.22;11.40
64698;BME280;51124;53.394;-6.294;2023-02-24T02:09:06;101356.61;;;19.22;11.37
64698;BME280;51124;53.394;-6.294;2023-02-24T02:11:34;101348.25;;;19.85;11.42
64698;BME280;51124;53.394;-6.294;2023-02-24T02:14:03;101343.47;;;19.65;11.60
64698;BME280;51124;53.394;-6.294;2023-02-24T02:16:43;101327.55;;;19.52;11.41
64698;BME280;51124;53.394;-6.294;2023-02-24T02:19:17;101327.69;;;19.60;11.41
64698;BME280;51124;53.394;-6.294;2023-02-24T02:21:48;101330.93;;;19.34;11.29
64698;BME280;51124;53.394;-6.294;2023-02-24T02:24:16;101326.42;;;19.56;11.46
64698;BME280;51124;53.394;-6.294;2023-02-24T02:26:52;101329.92;;;16.82;11.16
64698;BME280;51124;53.394;-6.294;2023-02-24T02:29:35;101328.22;;;17.26;10.70
64698;BME280;51124;53.394;-6.294;2023-02-24T02:31:52;101324.87;;;16.57;10.36
64698;BME280;51124;53.394;-6.294;2023-02-24T02:34:14;101321.86;;;16.99;10.10
64698;BME280;51124;53.394;-6.294;2023-02-24T02:36:41;101313.62;;;17.39;9.75
64698;BME280;51124;53.394;-6.294;2023-02-24T02:39:09;101313.89;;;17.27;9.54
64698;BME280;51124;53.394;-6.294;2023-02-24T02:41:32;101303.88;;;16.23;9.62
64698;BME280;51124;53.394;-6.294;2023-02-24T02:44:06;101303.51;;;16.80;9.45
64698;BME280;51124;53.394;-6.294;2023-02-24T02:46:38;101298.83;;;16.57;9.51
64698;BME280;51124;53.394;-6.294;2023-02-24T02:49:14;101301.46;;;16.65;9.25
64698;BME280;51124;53.394;-6.294;2023-02-24T02:51:39;101292.71;;;16.99;9.21
64698;BME280;51124;53.394;-6.294;2023-02-24T02:54:14;101283.17;;;17.73;9.09
64698;BME280;51124;53.394;-6.294;2023-02-24T02:56:39;101276.02;;;16.35;9.21
64698;BME280;51124;53.394;-6.294;2023-02-24T02:59:10;101274.21;;;16.83;9.09
64698;BME280;51124;53.394;-6.294;2023-02-24T03:01:40;101269.84;;;16.97;9.12
64698;BME280;51124;53.394;-6.294;2023-02-24T03:04:10;101272.49;;;16.81;9.12
64698;BME280;51124;53.394;-6.294;2023-02-24T03:06:43;101278.66;;;16.96;8.89
64698;BME280;51124;53.394;-6.294;2023-02-24T03:09:17;101277.46;;;16.08;9.12
64698;BME280;51124;53.394;-6.294;2023-02-24T03:11:48;101279.23;;;16.82;8.86
64698;BME280;51124;53.394;-6.294;2023-02-24T03:14:21;101278.57;;;17.15;8.74
64698;BME280;51124;53.394;-6.294;2023-02-24T03:16:49;101287.15;;;16.63;8.92
64698;BME280;51124;53.394;-6.294;2023-02-24T03:19:23;101287.08;;;15.82;9.08
64698;BME280;51124;53.394;-6.294;2023-02-24T03:21:57;101283.05;;;16.34;9.01
64698;BME280;51124;53.394;-6.294;2023-02-24T03:24:25;101275.43;;;16.89;8.81
64698;BME280;51124;53.394;-6.294;2023-02-24T03:26:55;101266.08;;;17.03;8.84
64698;BME280;51124;53.394;-6.294;2023-02-24T03:29:31;101265.27;;;16.86;8.74
64698;BME280;51124;53.394;-6.294;2023-02-24T03:31:54;101257.25;;;16.78;8.83
64698;BME280;51124;53.394;-6.294;2023-02-24T03:34:29;101256.98;;;16.71;8.83
64698;BME280;51124;53.394;-6.294;2023-02-24T03:37:00;101257.52;;;15.67;9.01
64698;BME280;51124;53.394;-6.294;2023-02-24T03:39:27;101251.38;;;16.01;8.99
64698;BME280;51124;53.394;-6.294;2023-02-24T03:41:57;101249.89;;;16.57;8.81
64698;BME280;51124;53.394;-6.294;2023-02-24T03:44:26;101256.30;;;15.70;9.11
64698;BME280;51124;53.394;-6.294;2023-02-24T03:46:54;101254.19;;;16.49;8.79
64698;BME280;51124;53.394;-6.294;2023-02-24T03:49:21;101245.18;;;16.76;8.82
64698;BME280;51124;53.394;-6.294;2023-02-24T03:52:00;101228.75;;;16.61;8.90
64698;BME280;51124;53.394;-6.294;2023-02-24T03:54:30;101237.90;;;16.94;8.87
64698;BME280;51124;53.394;-6.294;2023-02-24T03:57:04;101244.58;;;17.34;8.73
64698;BME280;51124;53.394;-6.294;2023-02-24T03:59:37;101241.03;;;16.34;8.83
64698;BME280;51124;53.394;-6.294;2023-02-24T04:02:00;101233.42;;;17.48;8.97
64698;BME280;51124;53.394;-6.294;2023-02-24T04:04:34;101233.66;;;16.20;9.13
64698;BME280;51124;53.394;-6.294;2023-02-24T04:07:11;101231.01;;;16.93;8.77
64698;BME280;51124;53.394;-6.294;2023-02-24T04:09:32;101227.45;;;16.06;8.79
64698;BME280;51124;53.394;-6.294;2023-02-24T04:12:01;101226.83;;;16.27;8.91
64698;BME280;51124;53.394;-6.294;2023-02-24T04:14:26;101225.64;;;16.16;8.77
64698;BME280;51124;53.394;-6.294;2023-02-24T04:16:58;101221.03;;;16.87;8.76
64698;BME280;51124;53.394;-6.294;2023-02-24T04:19:31;101216.67;;;19.85;8.90
64698;BME280;51124;53.394;-6.294;2023-02-24T04:22:00;101222.71;;;18.61;9.57
64698;BME280;51124;53.394;-6.294;2023-02-24T04:24:31;101219.82;;;17.04;9.61
64698;BME280;51124;53.394;-6.294;2023-02-24T04:27:02;101221.34;;;19.72;9.60
64698;BME280;51124;53.394;-6.294;2023-02-24T04:29:34;101217.32;;;20.27;10.17
64698;BME280;51124;53.394;-6.294;2023-02-24T04:32:07;101213.37;;;20.33;10.45
64698;BME280;51124;53.394;-6.294;2023-02-24T04:34:35;101214.65;;;19.48;10.86
64698;BME280;51124;53.394;-6.294;2023-02-24T04:37:05;101206.10;;;19.33;11.07
64698;BME280;51124;53.394;-6.294;2023-02-24T04:39:33;101205.41;;;19.29;11.03
64698;BME280;51124;53.394;-6.294;2023-02-24T04:42:01;101204.63;;;18.90;11.11
64698;BME280;51124;53.394;-6.294;2023-02-24T04:44:29;101202.42;;;19.23;11.22
64698;BME280;51124;53.394;-6.294;2023-02-24T04:46:56;101211.03;;;19.41;11.24
64698;BME280;51124;53.394;-6.294;2023-02-24T04:49:25;101209.51;;;19.20;11.24
64698;BME280;51124;53.394;-6.294;2023-02-24T04:51:53;101208.04;;;19.07;11.31
64698;BME280;51124;53.394;-6.294;2023-02-24T04:54:21;101206.33;;;18.94;11.39
64698;BME280;51124;53.394;-6.294;2023-02-24T04:56:50;101210.72;;;18.94;11.35
64698;BME280;51124;53.394;-6.294;2023-02-24T04:59:20;101201.78;;;19.13;11.43
64698;BME280;51124;53.394;-6.294;2023-02-24T05:01:48;101201.41;;;18.81;11.45
64698;BME280;51124;53.394;-6.294;2023-02-24T05:04:16;101204.99;;;18.47;11.40
64698;BME280;51124;53.394;-6.294;2023-02-24T05:06:44;101195.81;;;18.77;11.41
64698;BME280;51124;53.394;-6.294;2023-02-24T05:09:13;101193.69;;;19.21;11.43
64698;BME280;51124;53.394;-6.294;2023-02-24T05:11:45;101191.15;;;19.15;11.43
64698;BME280;51124;53.394;-6.294;2023-02-24T05:14:15;101193.72;;;19.19;11.40
64698;BME280;51124;53.394;-6.294;2023-02-24T05:16:44;101186.46;;;18.97;11.48
64698;BME280;51124;53.394;-6.294;2023-02-24T05:19:12;101165.47;;;16.93;11.07
64698;BME280;51124;53.394;-6.294;2023-02-24T05:21:40;101168.62;;;16.70;10.75
64698;BME280;51124;53.394;-6.294;2023-02-24T05:24:08;101178.57;;;17.24;10.16
64698;BME280;51124;53.394;-6.294;2023-02-24T05:26:37;101176.18;;;16.66;10.10
64698;BME280;51124;53.394;-6.294;2023-02-24T05:29:06;101185.97;;;16.42;9.84
64698;BME280;51124;53.394;-6.294;2023-02-24T05:31:34;101173.99;;;16.27;9.78
64698;BME280;51124;53.394;-6.294;2023-02-24T05:34:03;101175.52;;;16.34;9.64
64698;BME280;51124;53.394;-6.294;2023-02-24T05:36:34;101165.34;;;16.21;9.50
64698;BME280;51124;53.394;-6.294;2023-02-24T05:39:02;101159.73;;;16.23;9.42
64698;BME280;51124;53.394;-6.294;2023-02-24T05:41:29;101159.38;;;17.26;9.17
64698;BME280;51124;53.394;-6.294;2023-02-24T05:43:57;101162.69;;;16.59;9.30
64698;BME280;51124;53.394;-6.294;2023-02-24T05:46:26;101163.90;;;16.36;9.37
64698;BME280;51124;53.394;-6.294;2023-02-24T05:48:54;101164.41;;;16.88;9.16
64698;BME280;51124;53.394;-6.294;2023-02-24T05:51:21;101157.48;;;16.98;8.85
64698;BME280;51124;53.394;-6.294;2023-02-24T05:53:49;101164.11;;;16.46;9.09
64698;BME280;51124;53.394;-6.294;2023-02-24T05:56:16;101165.28;;;16.00;9.00
64698;BME280;51124;53.394;-6.294;2023-02-24T05:58:43;101169.34;;;15.96;8.97
64698;BME280;51124;53.394;-6.294;2023-02-24T06:01:11;101166.45;;;16.74;8.93
64698;BME280;51124;53.394;-6.294;2023-02-24T06:03:39;101172.95;;;16.05;9.06
64698;BME280;51124;53.394;-6.294;2023-02-24T06:06:06;101170.74;;;16.43;8.71
64698;BME280;51124;53.394;-6.294;2023-02-24T06:08:34;101174.60;;;15.38;8.88
64698;BME280;51124;53.394;-6.294;2023-02-24T06:11:01;101172.35;;;16.58;8.74
64698;BME280;51124;53.394;-6.294;2023-02-24T06:13:28;101177.55;;;16.85;8.87
64698;BME280;51124;53.394;-6.294;2023-02-24T06:15:56;101166.91;;;16.50;8.76
64698;BME280;51124;53.394;-6.294;2023-02-24T06:18:24;101169.20;;;17.04;8.85
64698;BME280;51124;53.394;-6.294;2023-02-24T06:20:51;101166.80;;;16.67;8.78
64698;BME280;51124;53.394;-6.294;2023-02-24T06:23:18;101164.97;;;15.97;8.92
64698;BME280;51124;53.394;-6.294;2023-02-24T06:25:46;101155.70;;;16.39;8.75
64698;BME280;51124;53.394;-6.294;2023-02-24T06:28:13;101153.14;;;16.62;8.77
64698;BME280;51124;53.394;-6.294;2023-02-24T06:30:40;101149.61;;;16.67;8.87
64698;BME280;51124;53.394;-6.294;2023-02-24T06:33:07;101149.27;;;16.68;8.80
64698;BME280;51124;53.394;-6.294;2023-02-24T06:35:35;101150.32;;;15.78;8.91
64698;BME280;51124;53.394;-6.294;2023-02-24T06:38:02;101148.84;;;16.64;8.72
64698;BME280;51124;53.394;-6.294;2023-02-24T06:40:29;101144.63;;;16.43;8.81
64698;BME280;51124;53.394;-6.294;2023-02-24T06:42:57;101148.80;;;16.74;8.87
64698;BME280;51124;53.394;-6.294;2023-02-24T06:45:24;101143.53;;;15.95;8.87
64698;BME280;51124;53.394;-6.294;2023-02-24T06:47:52;101144.11;;;17.10;8.75
64698;BME280;51124;53.394;-6.294;2023-02-24T06:50:20;101143.74;;;17.36;8.74
64698;BME280;51124;53.394;-6.294;2023-02-24T06:52:48;101153.64;;;16.44;8.77
64698;BME280;51124;53.394;-6.294;2023-02-24T06:55:16;101153.77;;;17.36;8.90
64698;BME280;51124;53.394;-6.294;2023-02-24T06:57:43;101155.29;;;16.08;9.04
64698;BME280;51124;53.394;-6.294;2023-02-24T07:00:11;101144.69;;;16.72;8.82
64698;BME280;51124;53.394;-6.294;2023-02-24T07:02:39;101142.80;;;17.02;8.77
64698;BME280;51124;53.394;-6.294;2023-02-24T07:05:07;101140.66;;;16.16;8.82
64698;BME280;51124;53.394;-6.294;2023-02-24T07:07:34;101138.11;;;17.82;8.55
64698;BME280;51124;53.394;-6.294;2023-02-24T07:10:01;101127.64;;;16.53;8.78
64698;BME280;51124;53.394;-6.294;2023-02-24T07:12:29;101128.49;;;19.54;9.00
64698;BME280;51124;53.394;-6.294;2023-02-24T07:14:57;101127.56;;;19.43;9.27
64698;BME280;51124;53.394;-6.294;2023-02-24T07:17:24;101128.52;;;17.66;9.49
64698;BME280;51124;53.394;-6.294;2023-02-24T07:19:52;101131.69;;;19.89;9.37
64698;BME280;51124;53.394;-6.294;2023-02-24T07:22:19;101140.48;;;20.20;9.97
64698;BME280;51124;53.394;-6.294;2023-02-24T07:24:47;101145.28;;;19.78;10.41
64698;BME280;51124;53.394;-6.294;2023-02-24T07:27:16;101147.33;;;19.75;10.64
64698;BME280;51124;53.394;-6.294;2023-02-24T07:29:44;101145.07;;;19.12;10.89
64698;BME280;51124;53.394;-6.294;2023-02-24T07:32:11;101150.00;;;19.31;10.92
64698;BME280;51124;53.394;-6.294;2023-02-24T07:34:39;101151.02;;;18.95;11.09
64698;BME280;51124;53.394;-6.294;2023-02-24T07:37:07;101151.03;;;19.18;10.92
64698;BME280;51124;53.394;-6.294;2023-02-24T07:39:36;101146.61;;;19.76;10.81
64698;BME280;51124;53.394;-6.294;2023-02-24T07:42:05;101150.36;;;19.89;11.01
64698;BME280;51124;53.394;-6.294;2023-02-24T07:44:33;101136.80;;;19.58;11.04
64698;BME280;51124;53.394;-6.294;2023-02-24T07:47:01;101140.56;;;19.87;11.13
64698;BME280;51124;53.394;-6.294;2023-02-24T07:49:29;101135.73;;;19.41;11.22
64698;BME280;51124;53.394;-6.294;2023-02-24T07:51:57;101136.44;;;19.67;11.21
64698;BME280;51124;53.394;-6.294;2023-02-24T07:54:26;101132.18;;;20.30;11.02
64698;BME280;51124;53.394;-6.294;2023-02-24T07:56:54;101135.76;;;20.11;11.45
64698;BME280;51124;53.394;-6.294;2023-02-24T07:59:24;101139.51;;;20.59;11.15
64698;BME280;51124;53.394;-6.294;2023-02-24T08:01:53;101133.07;;;20.63;11.03
64698;BME280;51124;53.394;-6.294;2023-02-24T08:04:22;101137.56;;;20.82;11.07
64698;BME280;51124;53.394;-6.294;2023-02-24T08:06:51;101138.43;;;20.74;10.97
64698;BME280;51124;53.394;-6.294;2023-02-24T08:09:21;101139.90;;;20.76;11.04
64698;BME280;51124;53.394;-6.294;2023-02-24T08:11:51;101138.96;;;19.04;10.74
64698;BME280;51124;53.394;-6.294;2023-02-24T08:14:19;101134.23;;;18.48;10.39
64698;BME280;51124;53.394;-6.294;2023-02-24T08:16:49;101133.56;;;18.41;10.05
64698;BME280;51124;53.394;-6.294;2023-02-24T08:19:18;101136.81;;;17.87;9.86
64698;BME280;51124;53.394;-6.294;2023-02-24T08:21:48;101135.25;;;17.91;9.67
64698;BME280;51124;53.394;-6.294;2023-02-24T08:24:17;101132.71;;;18.58;9.43
64698;BME280;51124;53.394;-6.294;2023-02-24T08:26:46;101134.02;;;18.71;9.29
64698;BME280;51124;53.394;-6.294;2023-02-24T08:29:13;101133.16;;;18.47;9.20
64698;BME280;51124;53.394;-6.294;2023-02-24T08:31:41;101138.59;;;18.13;9.19
64698;BME280;51124;53.394;-6.294;2023-02-24T08:34:08;101132.89;;;18.04;9.18
64698;BME280;51124;53.394;-6.294;2023-02-24T08:36:36;101138.35;;;17.91;9.04
64698;BME280;51124;53.394;-6.294;2023-02-24T08:39:03;101135.73;;;18.04;9.16
64698;BME280;51124;53.394;-6.294;2023-02-24T08:41:30;101129.95;;;17.79;9.09
64698;BME280;51124;53.394;-6.294;2023-02-24T08:43:58;101124.92;;;18.18;9.04
64698;BME280;51124;53.394;-6.294;2023-02-24T08:46:26;101128.77;;;17.05;8.94
64698;BME280;51124;53.394;-6.294;2023-02-24T08:48:56;101121.91;;;18.24;8.81
64698;BME280;51124;53.394;-6.294;2023-02-24T08:51:26;101122.25;;;17.78;8.76
64698;BME280;51124;53.394;-6.294;2023-02-24T08:53:55;101120.12;;;18.15;8.73
64698;BME280;51124;53.394;-6.294;2023-02-24T08:56:25;101120.56;;;18.03;8.55
64698;BME280;51124;53.394;-6.294;2023-02-24T08:58:55;101115.23;;;19.44;8.42
64698;BME280;51124;53.394;-6.294;2023-02-24T09:01:25;101109.79;;;18.26;8.77
64698;BME280;51124;53.394;-6.294;2023-02-24T09:03:54;101109.67;;;17.55;9.09
64698;BME280;51124;53.394;-6.294;2023-02-24T09:06:25;101107.59;;;17.29;9.07
64698;BME280;51124;53.394;-6.294;2023-02-24T09:09:17;101106.00;;;18.26;8.97
64698;BME280;51124;53.394;-6.294;2023-02-24T09:11:47;101111.28;;;18.15;9.20
64698;BME280;51124;53.394;-6.294;2023-02-24T09:14:16;101101.05;;;17.88;9.01
64698;BME280;51124;53.394;-6.294;2023-02-24T09:16:46;101097.86;;;17.73;8.98
64698;BME280;51124;53.394;-6.294;2023-02-24T09:19:14;101102.58;;;19.36;8.72
64698;BME280;51124;53.394;-6.294;2023-02-24T09:21:41;101098.69;;;19.13;8.58
64698;BME280;51124;53.394;-6.294;2023-02-24T09:24:08;101100.21;;;19.06;8.50
64698;BME280;51124;53.394;-6.294;2023-02-24T09:26:36;101086.71;;;19.16;8.27
64698;BME280;51124;53.394;-6.294;2023-02-24T09:29:03;101093.18;;;19.44;7.79
64698;BME280;51124;53.394;-6.294;2023-02-24T09:31:30;101089.68;;;20.23;7.52
64698;BME280;51124;53.394;-6.294;2023-02-24T09:33:58;101087.88;;;18.70;7.82
64698;BME280;51124;53.394;-6.294;2023-02-24T09:36:25;101080.06;;;20.25;7.43
64698;BME280;51124;53.394;-6.294;2023-02-24T09:38:54;101083.45;;;20.98;7.42
64698;BME280;51124;53.394;-6.294;2023-02-24T09:41:26;101077.49;;;20.63;7.56
64698;BME280;51124;53.394;-6.294;2023-02-24T09:43:54;101082.38;;;19.77;8.01
64698;BME280;51124;53.394;-6.294;2023-02-24T09:46:22;101081.44;;;20.15;8.13
64698;BME280;51124;53.394;-6.294;2023-02-24T09:48:55;101089.36;;;19.21;7.96
64698;BME280;51124;53.394;-6.294;2023-02-24T09:51:16;101087.99;;;20.95;8.08
64698;BME280;51124;53.394;-6.294;2023-02-24T09:53:44;101092.32;;;20.89;7.87
64698;BME280;51124;53.394;-6.294;2023-02-24T09:56:16;101093.49;;;20.25;7.88
64698;BME280;51124;53.394;-6.294;2023-02-24T09:58:49;101092.76;;;20.49;7.83
64698;BME280;51124;53.394;-6.294;2023-02-24T10:01:28;101094.34;;;19.94;7.90
64698;BME280;51124;53.394;-6.294;2023-02-24T10:03:50;101096.89;;;20.69;7.67
64698;BME280;51124;53.394;-6.294;2023-02-24T10:06:17;101090.33;;;21.81;7.74
64698;BME280;51124;53.394;-6.294;2023-02-24T10:08:51;101081.57;;;23.19;8.22
64698;BME280;51124;53.394;-6.294;2023-02-24T10:11:21;101089.72;;;23.11;8.56
64698;BME280;51124;53.394;-6.294;2023-02-24T10:13:53;101091.23;;;21.14;8.77
64698;BME280;51124;53.394;-6.294;2023-02-24T10:16:23;101095.00;;;25.50;8.87
64698;BME280;51124;53.394;-6.294;2023-02-24T10:18:54;101110.70;;;24.72;9.91
64698;BME280;51124;53.394;-6.294;2023-02-24T10:21:22;101117.99;;;24.10;10.48
64698;BME280;51124;53.394;-6.294;2023-02-24T10:23:52;101118.81;;;24.49;10.79
64698;BME280;51124;53.394;-6.294;2023-02-24T10:26:20;101120.72;;;23.89;11.26
64698;BME280;51124;53.394;-6.294;2023-02-24T10:28:52;101110.88;;;23.40;11.56
64698;BME280;51124;53.394;-6.294;2023-02-24T10:31:29;101110.00;;;23.21;11.65
64698;BME280;51124;53.394;-6.294;2023-02-24T10:33:48;101103.04;;;23.17;11.94
64698;BME280;51124;53.394;-6.294;2023-02-24T10:36:20;101095.68;;;22.08;12.11
64698;BME280;51124;53.394;-6.294;2023-02-24T10:38:48;101086.22;;;22.94;11.87
64698;BME280;51124;53.394;-6.294;2023-02-24T10:41:16;101082.04;;;22.96;12.04
64698;BME280;51124;53.394;-6.294;2023-02-24T10:43:55;101071.56;;;22.95;12.13
64698;BME280;51124;53.394;-6.294;2023-02-24T10:46:24;101069.65;;;22.92;12.27
64698;BME280;51124;53.394;-6.294;2023-02-24T10:48:49;101071.70;;;22.37;12.29
64698;BME280;51124;53.394;-6.294;2023-02-24T10:51:13;101075.08;;;22.43;12.43
64698;BME280;51124;53.394;-6.294;2023-02-24T10:53:42;101086.05;;;22.70;12.59
64698;BME280;51124;53.394;-6.294;2023-02-24T10:56:12;101098.31;;;22.22;12.57
64698;BME280;51124;53.394;-6.294;2023-02-24T10:58:42;101095.63;;;22.12;12.62
64698;BME280;51124;53.394;-6.294;2023-02-24T11:01:16;101102.12;;;22.21;12.88
64698;BME280;51124;53.394;-6.294;2023-02-24T11:03:49;101093.93;;;22.56;12.67
64698;BME280;51124;53.394;-6.294;2023-02-24T11:06:20;101098.13;;;21.56;12.71
64698;BME280;51124;53.394;-6.294;2023-02-24T11:08:58;101090.61;;;20.60;11.77
64698;BME280;51124;53.394;-6.294;2023-02-24T11:11:17;101091.02;;;21.08;10.83
64698;BME280;51124;53.394;-6.294;2023-02-24T11:13:48;101084.71;;;21.01;10.42
64698;BME280;51124;53.394;-6.294;2023-02-24T11:16:16;101082.85;;;21.91;10.08
64698;BME280;51124;53.394;-6.294;2023-02-24T11:18:47;101082.87;;;21.75;10.00
64698;BME280;51124;53.394;-6.294;2023-02-24T11:21:17;101076.59;;;21.76;9.35
64698;BME280;51124;53.394;-6.294;2023-02-24T11:23:47;101076.99;;;20.42;9.75
64698;BME280;51124;53.394;-6.294;2023-02-24T11:26:18;101066.88;;;21.47;9.24
64698;BME280;51124;53.394;-6.294;2023-02-24T11:28:57;101060.54;;;20.80;9.33
64698;BME280;51124;53.394;-6.294;2023-02-24T11:31:30;101064.48;;;21.85;9.15
64698;BME280;51124;53.394;-6.294;2023-02-24T11:33:57;101073.04;;;21.92;9.14
64698;BME280;51124;53.394;-6.294;2023-02-24T11:36:21;101087.09;;;20.41;9.51
64698;BME280;51124;53.394;-6.294;2023-02-24T11:38:47;101083.02;;;22.36;8.92
64698;BME280;51124;53.394;-6.294;2023-02-24T11:41:16;101075.60;;;20.99;9.04
64698;BME280;51124;53.394;-6.294;2023-02-24T11:43:36;101059.22;;;22.43;8.65
64698;BME280;51124;53.394;-6.294;2023-02-24T11:46:09;101057.36;;;21.67;8.66
64698;BME280;51124;53.394;-6.294;2023-02-24T11:48:41;101058.22;;;20.94;9.09
64698;BME280;51124;53.394;-6.294;2023-02-24T11:51:14;101055.10;;;23.09;9.45
64698;BME280;51124;53.394;-6.294;2023-02-24T11:53:47;101065.81;;;20.16;9.50
64698;BME280;51124;53.394;-6.294;2023-02-24T11:56:20;101066.83;;;21.87;8.83
64698;BME280;51124;53.394;-6.294;2023-02-24T11:58:53;101068.35;;;21.65;8.86
64698;BME280;51124;53.394;-6.294;2023-02-24T12:01:19;101065.23;;;20.95;9.00
64698;BME280;51124;53.394;-6.294;2023-02-24T12:03:54;101063.89;;;22.38;8.65
64698;BME280;51124;53.394;-6.294;2023-02-24T12:06:18;101059.81;;;22.89;8.44
64698;BME280;51124;53.394;-6.294;2023-02-24T12:08:50;101051.82;;;21.30;8.69
64698;BME280;51124;53.394;-6.294;2023-02-24T12:11:25;101052.91;;;21.51;8.80
64698;BME280;51124;53.394;-6.294;2023-02-24T12:13:51;101041.21;;;22.34;8.41
64698;BME280;51124;53.394;-6.294;2023-02-24T12:16:24;101042.19;;;21.60;8.67
64698;BME280;51124;53.394;-6.294;2023-02-24T12:18:57;101042.80;;;22.62;8.53
64698;BME280;51124;53.394;-6.294;2023-02-24T12:21:30;101031.59;;;22.13;8.46
64698;BME280;51124;53.394;-6.294;2023-02-24T12:23:59;101031.33;;;22.12;8.63
64698;BME280;51124;53.394;-6.294;2023-02-24T12:26:33;101024.96;;;21.59;8.68
64698;BME280;51124;53.394;-6.294;2023-02-24T12:29:15;101026.73;;;22.20;8.73
64698;BME280;51124;53.394;-6.294;2023-02-24T12:31:42;101024.97;;;21.77;8.86
64698;BME280;51124;53.394;-6.294;2023-02-24T12:34:14;101020.76;;;21.69;8.80
64698;BME280;51124;53.394;-6.294;2023-02-24T12:37:01;101019.92;;;21.62;9.31
64698;BME280;51124;53.394;-6.294;2023-02-24T12:39:19;101023.30;;;20.32;9.39
64698;BME280;51124;53.394;-6.294;2023-02-24T12:41:58;101019.85;;;21.50;9.07
64698;BME280;51124;53.394;-6.294;2023-02-24T12:44:26;101020.38;;;21.46;9.12
64698;BME280;51124;53.394;-6.294;2023-02-24T12:46:49;101015.55;;;20.19;9.11
64698;BME280;51124;53.394;-6.294;2023-02-24T12:49:34;101010.69;;;22.69;8.95
64698;BME280;51124;53.394;-6.294;2023-02-24T12:52:00;101010.89;;;21.64;9.25
64698;BME280;51124;53.394;-6.294;2023-02-24T12:54:26;100996.68;;;21.79;9.21
64698;BME280;51124;53.394;-6.294;2023-02-24T12:56:59;100998.72;;;20.33;9.20
64698;BME280;51124;53.394;-6.294;2023-02-24T12:59:24;100988.96;;;22.28;9.02